CheckWX is a tool to help pilots better visualize weather data.  It is not intended as a substitute for an official pre-flight weather briefing.

20:51:06 UTC

KFOD TAF
Fort Dodge Regional Airport
Fort Dodge, Iowa, USA
KFOD 161732Z 1618/1718 06004KT P6SM SCT030 FM170600 11005KT P6SM SCT140 FM171000 10004KT 5SM BR BKN020 FM171500 12004KT P6SM BKN030

Jun-16@
18:00 UTC

Jun-16 @ 18:00 UTC

Jun-17@
06:00 UTC

Jun-17 @ 06:00 UTC

KFOD 161732Z 1618/1718 06004KT P6SM SCT030
Wind
  • 060° at 4 KTS
Cloud Levels
  • Scattered at 3,000' AGL

Jun-17@
06:00 UTC

Jun-17 @ 06:00 UTC

Jun-17@
10:00 UTC

Jun-17 @ 10:00 UTC

FM170600 11005KT P6SM SCT140

From

From Standard forecast or significant change

Wind
  • 110° at 5 KTS
Cloud Levels
  • Scattered at 14,000' AGL

Jun-17@
10:00 UTC

Jun-17 @ 10:00 UTC

Jun-17@
15:00 UTC

Jun-17 @ 15:00 UTC

FM171000 10004KT 5SM BR BKN020

From

From Standard forecast or significant change

Wind
  • 100° at 4 KTS
Conditions
Mist
Cloud Levels
  • Broken at 2,000' AGL

Jun-17@
15:00 UTC

Jun-17 @ 15:00 UTC

Jun-17@
18:00 UTC

Jun-17 @ 18:00 UTC

FM171500 12004KT P6SM BKN030

From

From Standard forecast or significant change

Wind
  • 120° at 4 KTS
Cloud Levels
  • Broken at 3,000' AGL